• Join FlightAware (Why Join?)
  • Login
  • US Flag 
04:19AM EDT


 

Airport Tracker/Info


-or-


 

Live Flight TrackerFlight Track Log ✈ UPS38 ✈ 20-Jul-2013 ✈ PHNL - YSSY / SYD

Flight Track Log - Related Links

Times and Time Zones

All times are in EDT time to prevent confusion due to time zone crossing. See the UPS38 flight status page for this flight to view local times or setup timezone preferences in your user account.

Time Position Orientation Groundspeed Altitude Reporting Facility
EDT Latitude Longitude Course Direction KTS MPH feet Rate Location/Type
06:10PM 21.1640 -157.9520 233° Southwest 300 345 6,300  Level FlightAware
06:11PM 21.1360 -157.9900 232° Southwest 307 353 8,000 3,300 Climbing FlightAware
06:11PM 21.1290 -158.0010 236° Southwest 309 356 8,500 2,400 Climbing FlightAware
06:11PM 21.1210 -158.0230 249° West 321 369 9,000 2,460 Climbing FlightAware
06:12PM 21.1210 -158.1040 270° West 340 391 11,200 2,160 Climbing FlightAware
06:13PM 21.1240 -158.1850 272° West 382 440 12,500 1,680 Climbing FlightAware
06:13PM 21.1150 -158.2720 264° West 418 481 13,800 1,440 Climbing FlightAware
06:14PM 21.0990 -158.2990 238° Southwest 436 502 14,000 1,920 Climbing FlightAware
06:15PM 20.9900 -158.4020 221° Southwest 457 526 16,800 2,460 Climbing FlightAware
06:16PM 20.9170 -158.4700 221° Southwest 469 540 18,700 2,640 Climbing FlightAware
06:16PM 20.8430 -158.5410 222° Southwest 477 549 20,500 2,040 Climbing FlightAware
06:17PM 20.7680 -158.6120 222° Southwest 487 560 21,900 1,800 Climbing FlightAware
06:18PM 20.6750 -158.7020 222° Southwest 501 577 23,600 1,860 Climbing FlightAware
06:19PM 20.5970 -158.7750 221° Southwest 506 582 25,000 1,860 Climbing FlightAware
06:19PM 20.5350 -158.8340 222° Southwest 509 586 26,100 2,400 Climbing FlightAware
06:20PM 20.4560 -158.9090 222° Southwest 493 567 28,200 2,880 Climbing FlightAware
06:21PM 20.3980 -158.9630 221° Southwest 474 545 30,000 2,100 Climbing FlightAware
06:22PM 20.3150 -159.0420 222° Southwest 474 545 31,200 1,320 Climbing FlightAware
06:22PM 20.2490 -159.1040 221° Southwest 475 547 32,000 600 Climbing FlightAware
06:23PM 20.1940 -159.1560 222° Southwest 470 541 32,000  Level FlightAware
06:24PM 20.1070 -159.2380 222° Southwest 472 543 32,000  Level FlightAware
06:24PM 20.0350 -159.3060 222° Southwest 469 540 32,000  Level FlightAware
06:25PM 19.9730 -159.3650 222° Southwest 470 541 32,000  Level FlightAware
06:26PM 19.9080 -159.4260 221° Southwest 471 542 32,000  Level FlightAware
06:27PM 19.8030 -159.5240 221° Southwest 470 541 32,000  Level FlightAware
06:27PM 19.7360 -159.5860 221° Southwest 467 537 32,000  Level FlightAware
06:28PM 19.6630 -159.6540 221° Southwest 468 539 32,000  Level FlightAware
06:29PM 19.5990 -159.7140 221° Southwest 469 540 32,000  Level FlightAware
06:30PM 19.5330 -159.7760 222° Southwest 470 541 32,000  Level FlightAware
06:30PM 19.4670 -159.8390 222° Southwest 470 541 32,000  Level FlightAware
06:31PM 19.4020 -159.8980 221° Southwest 472 543 32,000  Level FlightAware
06:32PM 19.3350 -159.9610 222° Southwest 473 544 32,000  Level FlightAware
06:32PM 19.2540 -160.0350 221° Southwest 474 545 32,000  Level FlightAware
06:33PM 19.1800 -160.1040 221° Southwest 475 547 32,000  Level FlightAware
06:34PM 19.1040 -160.1750 221° Southwest 475 547 32,000  Level FlightAware
06:35PM 19.0050 -160.2660 221° Southwest 476 548 32,000  Level FlightAware
06:36PM 18.9310 -160.3340 221° Southwest 477 549 32,000  Level FlightAware
06:36PM 18.8710 -160.3900 221° Southwest 477 549 32,000  Level FlightAware
06:37PM 18.7900 -160.4640 221° Southwest 474 545 32,000  Level FlightAware
06:38PM 18.7270 -160.5220 221° Southwest 474 545 32,000  Level FlightAware
06:38PM 18.6570 -160.5860 221° Southwest 472 543 32,000  Level FlightAware
06:39PM 18.5830 -160.6540 221° Southwest 471 542 32,000  Level FlightAware
06:40PM 18.4660 -160.7610 221° Southwest 471 542 32,000  Level FlightAware
06:41PM 18.4000 -160.8167 226° Southwest 465 535 32,000  Level Oakland Oceanic (ODAPS)
06:41PM 18.4120 -160.8110 221° Southwest 471 542 32,000  Level FlightAware
06:42PM 18.3220 -160.9110 227° Southwest 473 544 32,000  Level FlightAware
06:43PM 18.2600 -160.9810 227° Southwest 473 544 32,000  Level FlightAware
06:43PM 18.2140 -161.0330 227° Southwest 473 544 32,000  Level FlightAware
06:44PM 18.1530 -161.1010 227° Southwest 473 544 32,000  Level FlightAware
06:45PM 18.1070 -161.1530 227° Southwest 473 544 32,000  Level FlightAware
06:45PM 18.0333 -161.2167 226° Southwest 465 535 32,000  Level Oakland Oceanic (ODAPS)
06:45PM 18.0620 -161.2040 227° Southwest 473 544 32,000  Level FlightAware
06:46PM 18.0010 -161.2730 227° Southwest 473 544 32,000  Level FlightAware
06:47PM 17.8639 -161.4081 226° Southwest 465 535 32,000  Level FlightAware Transoceanic
06:47PM 17.9580 -161.3220 226° Southwest 473 544 32,000  Level FlightAware
06:47PM 17.9120 -161.3730 227° Southwest 473 544 32,000  Level FlightAware
06:48PM 17.8500 -161.4430 227° Southwest 473 544 32,000  Level FlightAware
06:49PM 17.8030 -161.4960 227° Southwest 473 544 32,000  Level FlightAware
06:50PM 17.7420 -161.5650 227° Southwest 473 544 32,000  Level FlightAware
06:50PM 17.6960 -161.6160 226° Southwest 473 544 32,000  Level FlightAware
06:51PM 17.6010 -161.7230 227° Southwest 473 544 32,000  Level FlightAware
06:54PM 17.4099 -161.9286 226° Southwest  Level FlightAware Approximate
06:55PM 17.3181 -162.0271 226° Southwest  Level FlightAware Approximate
06:56PM 17.2263 -162.1255 226° Southwest  Level FlightAware Approximate
06:57PM 17.1344 -162.2239 226° Southwest  Level FlightAware Approximate
06:58PM 17.0425 -162.3221 226° Southwest  Level FlightAware Approximate
06:59PM 16.9505 -162.4202 226° Southwest  Level FlightAware Approximate
06:59PM 16.7667 -162.6167 226° Southwest 470 541 32,000  Level Oakland Oceanic (ODAPS)
07:00PM 16.8585 -162.5183 226° Southwest  Level FlightAware Approximate
07:01PM 16.7664 -162.6162 226° Southwest  Level FlightAware Approximate
07:02PM 16.6743 -162.7141 226° Southwest  Level FlightAware Approximate
07:03PM 16.5821 -162.8118 225° Southwest  Level FlightAware Approximate
07:04PM 16.4899 -162.9095 225° Southwest  Level FlightAware Approximate
07:05PM 16.3977 -163.0070 225° Southwest  Level FlightAware Approximate
07:06PM 16.1201 -163.3070 226° Southwest 470 541 32,000  Level FlightAware Transoceanic
07:07PM 16.0275 -163.4052 226° Southwest 470 541 32,000  Level FlightAware Transoceanic
07:08PM 15.9349 -163.5034 226° Southwest 470 541 32,000  Level FlightAware Transoceanic
07:09PM 15.8423 -163.6015 226° Southwest 470 541 32,000  Level FlightAware Transoceanic
07:10PM 15.7496 -163.6994 225° Southwest 470 541 32,000  Level FlightAware Transoceanic
07:11PM 15.6569 -163.7973 225° Southwest 470 541 32,000  Level FlightAware Transoceanic
07:12PM 15.5641 -163.8951 225° Southwest 470 541 32,000  Level FlightAware Transoceanic
07:13PM 15.4713 -163.9928 225° Southwest 470 541 32,000 1,380 Level FlightAware Transoceanic
07:13PM 15.4500 -164.0000 226° Southwest 482 555 34,000  Climbing Oakland Oceanic (ODAPS)
07:14PM 15.3784 -164.0905 225° Southwest 470 541 32,000 -1,260 Descending FlightAware Transoceanic
07:15PM 15.2855 -164.1880 225° Southwest 470 541 32,000  Level FlightAware Transoceanic
07:16PM 15.1926 -164.2854 225° Southwest 470 541 32,000  Level FlightAware Transoceanic
07:17PM 15.0996 -164.3828 225° Southwest 470 541 32,000  Level FlightAware Transoceanic
07:18PM 15.0066 -164.4801 225° Southwest 470 541 32,000 960 Level FlightAware Transoceanic
07:19PM 14.8989 -164.5821 225° Southwest 482 555 34,000 960 Climbing FlightAware Transoceanic
07:20PM 14.8069 -164.6788 225° Southwest 482 555 34,000  Level FlightAware Transoceanic
07:21PM 14.7149 -164.7755 225° Southwest 482 555 34,000  Level FlightAware Transoceanic
07:22PM 14.6228 -164.8721 225° Southwest 482 555 34,000  Level FlightAware Transoceanic
07:23PM 14.5307 -164.9685 225° Southwest 482 555 34,000  Level FlightAware Transoceanic
07:24PM 14.4386 -165.0649 225° Southwest 482 555 34,000  Level FlightAware Transoceanic
07:25PM 14.3464 -165.1613 225° Southwest 482 555 34,000  Level FlightAware Transoceanic
07:26PM 14.2542 -165.2575 225° Southwest 482 555 34,000  Level FlightAware Transoceanic
07:27PM 14.1619 -165.3537 225° Southwest 482 555 34,000  Level FlightAware Transoceanic
07:27PM 14.1167 -165.4000 225° Southwest 493 567 34,000  Level Oakland Oceanic (ODAPS)
07:28PM 14.0696 -165.4498 225° Southwest 482 555 34,000  Level FlightAware Transoceanic
07:29PM 13.9773 -165.5458 225° Southwest 482 555 34,000  Level FlightAware Transoceanic
07:30PM 13.8849 -165.6417 225° Southwest 482 555 34,000  Level FlightAware Transoceanic
07:31PM 13.7924 -165.7375 225° Southwest 482 555 34,000  Level FlightAware Transoceanic
07:31PM 13.7000 -165.8333 225° Southwest 482 555 34,000  Level Oakland Oceanic (ODAPS)
07:32PM 13.7000 -165.8333 225° Southwest 482 555 34,000  Level FlightAware Transoceanic
07:33PM 13.5057 -166.0333 225° Southwest 493 567 34,000  Level FlightAware Transoceanic
07:34PM 13.4085 -166.1332 225° Southwest 493 567 34,000  Level FlightAware Transoceanic
07:35PM 13.3113 -166.2330 225° Southwest 493 567 34,000  Level FlightAware Transoceanic
07:36PM 13.2140 -166.3327 225° Southwest 493 567 34,000  Level FlightAware Transoceanic
07:37PM 13.1396 -166.4089 225° Southwest 482 555 34,000  Level FlightAware Transoceanic
07:38PM 13.0461 -166.5045 225° Southwest 482 555 34,000  Level FlightAware Transoceanic
07:39PM 12.9525 -166.6001 225° Southwest 482 555 34,000  Level FlightAware Transoceanic
07:40PM 12.8589 -166.6956 225° Southwest 482 555 34,000  Level FlightAware Transoceanic
07:41PM 12.7653 -166.7911 225° Southwest 482 555 34,000  Level FlightAware Transoceanic
07:41PM 12.7667 -166.7833 225° Southwest 483 556 34,000  Level Oakland Oceanic (ODAPS)
07:42PM 12.6716 -166.8865 225° Southwest 482 555 34,000  Level FlightAware Transoceanic
07:43PM 12.5779 -166.9818 225° Southwest 482 555 34,000  Level FlightAware Transoceanic
07:44PM 12.4841 -167.0770 225° Southwest 482 555 34,000  Level FlightAware Transoceanic
07:45PM 12.3904 -167.1722 225° Southwest 482 555 34,000  Level FlightAware Transoceanic
07:46PM 12.2966 -167.2673 225° Southwest 482 555 34,000  Level FlightAware Transoceanic
07:47PM 12.1899 -167.3700 225° Southwest 483 556 34,000  Level FlightAware Transoceanic
07:48PM 12.0936 -167.4675 225° Southwest 483 556 34,000  Level FlightAware Transoceanic
07:49PM 11.9973 -167.5650 225° Southwest 483 556 34,000  Level FlightAware Transoceanic
07:50PM 11.9010 -167.6624 225° Southwest 483 556 34,000  Level FlightAware Transoceanic
07:51PM 11.8047 -167.7597 225° Southwest 483 556 34,000  Level FlightAware Transoceanic
07:52PM 11.7083 -167.8569 225° Southwest 483 556 34,000  Level FlightAware Transoceanic
07:53PM 11.6119 -167.9541 225° Southwest 483 556 34,000  Level FlightAware Transoceanic
07:54PM 11.5154 -168.0512 225° Southwest 483 556 34,000  Level FlightAware Transoceanic
07:54PM 11.4000 -168.1667 225° Southwest 485 558 34,000  Level Oakland Oceanic (ODAPS)
07:55PM 11.4189 -168.1483 225° Southwest 483 556 34,000  Level FlightAware Transoceanic
07:56PM 11.3224 -168.2452 225° Southwest 483 556 34,000  Level FlightAware Transoceanic
07:57PM 11.2259 -168.3421 225° Southwest 483 556 34,000  Level FlightAware Transoceanic
07:58PM 11.1293 -168.4390 225° Southwest 483 556 34,000  Level FlightAware Transoceanic
07:59PM 11.0327 -168.5358 225° Southwest 483 556 34,000  Level FlightAware Transoceanic
08:00PM 10.9360 -168.6325 224° Southwest 483 556 34,000  Level FlightAware Transoceanic
08:01PM 10.8248 -168.7433 224° Southwest 485 558 34,000  Level FlightAware Transoceanic
08:02PM 10.7288 -168.8392 224° Southwest 485 558 34,000  Level FlightAware Transoceanic
08:03PM 10.6328 -168.9350 224° Southwest 485 558 34,000  Level FlightAware Transoceanic
08:04PM 10.5368 -169.0307 224° Southwest 485 558 34,000  Level FlightAware Transoceanic
08:05PM 10.4407 -169.1264 224° Southwest 485 558 34,000  Level FlightAware Transoceanic
08:06PM 10.3446 -169.2221 224° Southwest 485 558 34,000  Level FlightAware Transoceanic
08:07PM 10.2485 -169.3177 224° Southwest 485 558 34,000  Level FlightAware Transoceanic
08:08PM 10.1523 -169.4132 224° Southwest 485 558 34,000  Level FlightAware Transoceanic
08:08PM 10.0167 -169.5500 224° Southwest 486 559 34,000  Level Oakland Oceanic (ODAPS)
08:09PM 10.0562 -169.5087 224° Southwest 485 558 34,000  Level FlightAware Transoceanic
08:10PM 9.9600 -169.6041 224° Southwest 485 558 34,000  Level FlightAware Transoceanic
08:11PM 9.8637 -169.6994 224° Southwest 485 558 34,000  Level FlightAware Transoceanic
08:12PM 9.7675 -169.7947 224° Southwest 485 558 34,000  Level FlightAware Transoceanic
08:13PM 9.6712 -169.8900 224° Southwest 485 558 34,000  Level FlightAware Transoceanic
08:14PM 9.5749 -169.9852 224° Southwest 485 558 34,000  Level FlightAware Transoceanic
08:15PM 9.4080 -170.1509 224° Southwest 486 559 34,000  Level FlightAware Transoceanic
08:16PM 9.3064 -170.2508 224° Southwest 486 559 34,000  Level FlightAware Transoceanic
08:17PM 9.2049 -170.3507 224° Southwest 486 559 34,000  Level FlightAware Transoceanic
08:18PM 9.1033 -170.4505 224° Southwest 486 559 34,000  Level FlightAware Transoceanic
08:19PM 9.0016 -170.5503 224° Southwest 486 559 34,000  Level FlightAware Transoceanic
08:20PM 8.9000 -170.6500 224° Southwest 486 559 34,000  Level FlightAware Transoceanic
08:20PM 8.9000 -170.6500 224° Southwest 483 556 34,000  Level Oakland Oceanic (ODAPS)
08:21PM 8.7988 -170.7490 224° Southwest 486 559 34,000  Level FlightAware Transoceanic
08:22PM 8.6975 -170.8479 224° Southwest 486 559 34,000  Level FlightAware Transoceanic
08:22PM 8.6167 -170.9167 224° Southwest 484 557 34,000  Level Oakland Oceanic (ODAPS)
08:23PM 8.5962 -170.9467 224° Southwest 486 559 34,000  Level FlightAware Transoceanic
08:24PM 8.4949 -171.0455 224° Southwest 486 559 34,000  Level FlightAware Transoceanic
08:25PM 8.3935 -171.1443 224° Southwest 486 559 34,000  Level FlightAware Transoceanic
08:26PM 8.3165 -171.2193 224° Southwest 483 556 34,000  Level FlightAware Transoceanic
08:27PM 8.2192 -171.3140 224° Southwest 483 556 34,000  Level FlightAware Transoceanic
08:28PM 8.0439 -171.4756 224° Southwest 484 557 34,000  Level FlightAware Transoceanic
08:29PM 7.9484 -171.5685 224° Southwest 484 557 34,000  Level FlightAware Transoceanic
08:30PM 7.8528 -171.6615 224° Southwest 484 557 34,000  Level FlightAware Transoceanic
08:31PM 7.7572 -171.7544 224° Southwest 484 557 34,000  Level FlightAware Transoceanic
08:32PM 7.6617 -171.8472 224° Southwest 484 557 34,000  Level FlightAware Transoceanic
08:33PM 7.5660 -171.9401 224° Southwest 484 557 34,000  Level FlightAware Transoceanic
08:34PM 7.4704 -172.0329 224° Southwest 484 557 34,000  Level FlightAware Transoceanic
08:35PM 7.3748 -172.1256 224° Southwest 484 557 34,000  Level FlightAware Transoceanic
08:36PM 7.2791 -172.2183 224° Southwest 484 557 34,000  Level FlightAware Transoceanic
08:36PM 7.2333 -172.2833 224° Southwest 483 556 34,000  Level Oakland Oceanic (ODAPS)
08:37PM 7.1834 -172.3109 224° Southwest 484 557 34,000  Level FlightAware Transoceanic
08:38PM 7.0877 -172.4036 224° Southwest 484 557 34,000  Level FlightAware Transoceanic
08:39PM 6.9920 -172.4962 224° Southwest 484 557 34,000  Level FlightAware Transoceanic
08:40PM 6.8962 -172.5887 224° Southwest 484 557 34,000  Level FlightAware Transoceanic
08:41PM 6.8004 -172.6812 224° Southwest 484 557 34,000  Level FlightAware Transoceanic
08:42PM 6.6498 -172.8436 224° Southwest 483 556 34,000  Level FlightAware Transoceanic
08:43PM 6.5524 -172.9368 224° Southwest 483 556 34,000  Level FlightAware Transoceanic
08:44PM 6.4551 -173.0300 224° Southwest 483 556 34,000  Level FlightAware Transoceanic
08:45PM 6.3577 -173.1232 224° Southwest 483 556 34,000  Level FlightAware Transoceanic
08:46PM 6.2603 -173.2164 224° Southwest 483 556 34,000  Level FlightAware Transoceanic
08:47PM 6.1630 -173.3094 224° Southwest 483 556 34,000  Level FlightAware Transoceanic
08:48PM 6.0655 -173.4025 224° Southwest 483 556 34,000  Level FlightAware Transoceanic
08:49PM 5.9681 -173.4955 224° Southwest 483 556 34,000  Level FlightAware Transoceanic
08:50PM 5.8707 -173.5885 224° Southwest 483 556 34,000  Level FlightAware Transoceanic
08:50PM 5.8167 -173.6333 224° Southwest 482 555 34,000  Level Oakland Oceanic (ODAPS)
08:51PM 5.7732 -173.6815 223° Southwest 483 556 34,000  Level FlightAware Transoceanic
08:52PM 5.6757 -173.7744 223° Southwest 483 556 34,000  Level FlightAware Transoceanic
08:53PM 5.5783 -173.8674 223° Southwest 483 556 34,000  Level FlightAware Transoceanic
08:54PM 5.4808 -173.9602 223° Southwest 483 556 34,000  Level FlightAware Transoceanic
08:55PM 5.3832 -174.0531 223° Southwest 483 556 34,000  Level FlightAware Transoceanic
08:56PM 5.2487 -174.1765 224° Southwest 482 555 34,000  Level FlightAware Transoceanic
08:57PM 5.1540 -174.2669 224° Southwest 482 555 34,000  Level FlightAware Transoceanic
08:58PM 5.0593 -174.3573 224° Southwest 482 555 34,000  Level FlightAware Transoceanic
08:59PM 4.9646 -174.4476 224° Southwest 482 555 34,000  Level FlightAware Transoceanic
09:00PM 4.8698 -174.5380 224° Southwest 482 555 34,000  Level FlightAware Transoceanic
09:01PM 4.7751 -174.6283 224° Southwest 482 555 34,000  Level FlightAware Transoceanic
09:02PM 4.6803 -174.7186 224° Southwest 482 555 34,000  Level FlightAware Transoceanic
09:03PM 4.5855 -174.8089 224° Southwest 482 555 34,000  Level FlightAware Transoceanic
09:04PM 4.4908 -174.8991 224° Southwest 482 555 34,000  Level FlightAware Transoceanic
09:04PM 4.4167 -174.9833 222° Southwest 490 564 34,000  Level Oakland Oceanic (ODAPS)
09:05PM 4.3960 -174.9893 223° Southwest 482 555 34,000  Level FlightAware Transoceanic
09:06PM 4.3012 -175.0795 223° Southwest 482 555 34,000  Level FlightAware Transoceanic
09:07PM 4.2063 -175.1697 223° Southwest 482 555 34,000  Level FlightAware Transoceanic
09:08PM 4.1115 -175.2599 223° Southwest 482 555 34,000  Level FlightAware Transoceanic
09:08PM 4.0167 -175.3500 224° Southwest 482 555 34,000  Level Oakland Oceanic (ODAPS)
09:09PM 4.0167 -175.3500 224° Southwest 482 555 34,000  Level FlightAware Transoceanic
09:10PM 3.8170 -175.5404 224° Southwest 490 564 34,000  Level FlightAware Transoceanic
09:11PM 3.7171 -175.6356 224° Southwest 490 564 34,000  Level FlightAware Transoceanic
09:12PM 3.6172 -175.7308 224° Southwest 490 564 34,000  Level FlightAware Transoceanic
09:13PM 3.5173 -175.8259 224° Southwest 490 564 34,000  Level FlightAware Transoceanic
09:14PM 3.4294 -175.9096 224° Southwest 482 555 34,000  Level FlightAware Transoceanic
09:15PM 3.3315 -176.0028 224° Southwest 482 555 34,000  Level FlightAware Transoceanic
09:16PM 3.2336 -176.0960 224° Southwest 482 555 34,000  Level FlightAware Transoceanic
09:17PM 3.1357 -176.1891 224° Southwest 482 555 34,000  Level FlightAware Transoceanic
09:18PM 3.0378 -176.2823 224° Southwest 482 555 34,000 1,080 Level FlightAware Transoceanic
09:18PM 3.0000 -176.3333 223° Southwest 493 567 35,300  Climbing Oakland Oceanic (ODAPS)
09:19PM 2.9398 -176.3754 224° Southwest 482 555 34,000 -720 Descending FlightAware Transoceanic
09:20PM 2.8419 -176.4685 224° Southwest 482 555 34,000  Level FlightAware Transoceanic
09:21PM 2.7439 -176.5616 224° Southwest 482 555 34,000  Level FlightAware Transoceanic
09:22PM 2.6460 -176.6547 224° Southwest 482 555 34,000  Level FlightAware Transoceanic
09:23PM 2.5480 -176.7478 223° Southwest 482 555 34,000 600 Level FlightAware Transoceanic
09:24PM 2.4030 -176.8983 223° Southwest 493 567 35,300 600 Climbing FlightAware Transoceanic
09:25PM 2.3034 -176.9924 223° Southwest 493 567 35,300  Level FlightAware Transoceanic
09:26PM 2.2039 -177.0865 223° Southwest 493 567 35,300  Level FlightAware Transoceanic
09:27PM 2.1044 -177.1806 223° Southwest 493 567 35,300  Level FlightAware Transoceanic
09:28PM 2.0048 -177.2746 223° Southwest 493 567 35,300  Level FlightAware Transoceanic
09:29PM 1.9053 -177.3687 223° Southwest 493 567 35,300  Level FlightAware Transoceanic
09:30PM 1.8057 -177.4628 223° Southwest 493 567 35,300  Level FlightAware Transoceanic
09:31PM 1.7061 -177.5568 223° Southwest 493 567 35,300  Level FlightAware Transoceanic
09:32PM 1.6066 -177.6508 223° Southwest 493 567 35,300 660 Level FlightAware Transoceanic
09:32PM 1.6167 -177.6333 223° Southwest 492 566 36,000  Climbing Oakland Oceanic (ODAPS)
09:33PM 1.5070 -177.7448 223° Southwest 493 567 35,300 -360 Descending FlightAware Transoceanic
09:34PM 1.4074 -177.8388 223° Southwest 493 567 35,300  Level FlightAware Transoceanic
09:35PM 1.3078 -177.9328 223° Southwest 493 567 35,300  Level FlightAware Transoceanic
09:36PM 1.2083 -178.0268 223° Southwest 493 567 35,300  Level FlightAware Transoceanic
09:37PM 1.1087 -178.1208 223° Southwest 493 567 35,300 300 Level FlightAware Transoceanic
09:38PM 1.0168 -178.2015 223° Southwest 492 566 36,000 300 Climbing FlightAware Transoceanic
09:39PM 0.9168 -178.2962 223° Southwest 492 566 36,000  Level FlightAware Transoceanic
09:40PM 0.8168 -178.3909 223° Southwest 492 566 36,000  Level FlightAware Transoceanic
09:41PM 0.7168 -178.4855 223° Southwest 492 566 36,000  Level FlightAware Transoceanic
09:42PM 0.6168 -178.5802 223° Southwest 492 566 36,000  Level FlightAware Transoceanic
09:43PM 0.5167 -178.6749 223° Southwest 492 566 36,000  Level FlightAware Transoceanic
09:44PM 0.4168 -178.7695 223° Southwest 492 566 36,000  Level FlightAware Transoceanic
09:45PM 0.3167 -178.8642 223° Southwest 492 566 36,000  Level FlightAware Transoceanic
09:45PM 0.2500 -178.9333 223° Southwest 491 565 36,000  Level Oakland Oceanic (ODAPS)
09:46PM 0.2167 -178.9588 223° Southwest 492 566 36,000  Level FlightAware Transoceanic
09:47PM 0.1167 -179.0535 223° Southwest 492 566 36,000  Level FlightAware Transoceanic
09:48PM 0.0167 -179.1481 223° Southwest 492 566 36,000  Level FlightAware Transoceanic
09:49PM -0.0833 -179.2428 223° Southwest 492 566 36,000  Level FlightAware Transoceanic
09:50PM -0.1833 -179.3374 223° Southwest 492 566 36,000  Level FlightAware Transoceanic
09:51PM -0.2833 -179.4321 223° Southwest 492 566 36,000  Level FlightAware Transoceanic
09:52PM -0.3682 -179.5151 223° Southwest 491 565 36,000  Level FlightAware Transoceanic
09:53PM -0.4712 -179.6121 223° Southwest 491 565 36,000  Level FlightAware Transoceanic
09:54PM -0.5743 -179.7091 223° Southwest 491 565 36,000  Level FlightAware Transoceanic
09:55PM -0.6773 -179.8060 223° Southwest 491 565 36,000  Level FlightAware Transoceanic
09:56PM -0.7803 -179.9030 223° Southwest 491 565 36,000  Level FlightAware Transoceanic
09:57PM -0.8833 -180.0000 219° Southwest 491 565 36,000  Level FlightAware Transoceanic
09:58PM -0.9867 179.9158 219° Southwest 491 565 36,000  Level FlightAware Transoceanic
09:59PM -1.0900 179.8315 219° Southwest 491 565 36,000  Level FlightAware Transoceanic
10:00PM -1.1934 179.7472 219° Southwest 491 565 36,000  Level FlightAware Transoceanic
10:01PM -1.2967 179.6630 219° Southwest 491 565 36,000  Level FlightAware Transoceanic
10:02PM -1.4001 179.5787 219° Southwest 491 565 36,000  Level FlightAware Transoceanic
10:03PM -1.5034 179.4944 219° Southwest 491 565 36,000  Level FlightAware Transoceanic
10:04PM -1.6068 179.4101 219° Southwest 491 565 36,000  Level FlightAware Transoceanic
10:05PM -1.7101 179.3258 219° Southwest 491 565 36,000  Level FlightAware Transoceanic
10:06PM -1.8134 179.2415 219° Southwest 491 565 36,000  Level FlightAware Transoceanic
10:07PM -1.9168 179.1572 219° Southwest 491 565 36,000  Level FlightAware Transoceanic
10:08PM -2.0201 179.0729 219° Southwest 491 565 36,000  Level FlightAware Transoceanic
10:09PM -2.1234 178.9886 219° Southwest 491 565 36,000  Level FlightAware Transoceanic
10:10PM -2.2267 178.9042 219° Southwest 491 565 36,000  Level FlightAware Transoceanic
10:11PM -2.3300 178.8199 219° Southwest 491 565 36,000  Level FlightAware Transoceanic
10:12PM -2.4333 178.7355 219° Southwest 491 565 36,000  Level FlightAware Transoceanic
10:13PM -2.5366 178.6511 219° Southwest 491 565 36,000  Level FlightAware Transoceanic
10:14PM -2.6399 178.5667 219° Southwest 491 565 36,000  Level FlightAware Transoceanic
10:15PM -2.7432 178.4823 219° Southwest 491 565 36,000  Level FlightAware Transoceanic
10:16PM -2.8465 178.3979 219° Southwest 491 565 36,000  Level FlightAware Transoceanic
10:17PM -2.9498 178.3134 219° Southwest 491 565 36,000  Level FlightAware Transoceanic
10:18PM -3.0531 178.2290 219° Southwest 491 565 36,000  Level FlightAware Transoceanic
10:19PM -3.1563 178.1445 219° Southwest 491 565 36,000  Level FlightAware Transoceanic
10:20PM -3.2596 178.0600 219° Southwest 491 565 36,000  Level FlightAware Transoceanic
10:21PM -3.3628 177.9755 219° Southwest 491 565 36,000  Level FlightAware Transoceanic
10:22PM -3.4661 177.8910 219° Southwest 491 565 36,000  Level FlightAware Transoceanic
10:23PM -3.5693 177.8064 219° Southwest 491 565 36,000  Level FlightAware Transoceanic
10:24PM -3.6725 177.7219 219° Southwest 491 565 36,000  Level FlightAware Transoceanic
10:25PM -3.7757 177.6373 219° Southwest 491 565 36,000  Level FlightAware Transoceanic
10:26PM -3.8790 177.5527 219° Southwest 491 565 36,000  Level FlightAware Transoceanic
10:27PM -3.9822 177.4681 219° Southwest 491 565 36,000  Level FlightAware Transoceanic
10:28PM -4.0853 177.3834 219° Southwest 491 565 36,000  Level FlightAware Transoceanic
10:29PM -4.1885 177.2988 219° Southwest 491 565 36,000  Level FlightAware Transoceanic
10:30PM -4.2917 177.2141 219° Southwest 491 565 36,000  Level FlightAware Transoceanic
10:31PM -4.3949 177.1293 219° Southwest 491 565 36,000  Level FlightAware Transoceanic
10:32PM -4.4980 177.0446 219° Southwest 491 565 36,000  Level FlightAware Transoceanic
10:33PM -4.6012 176.9599 219° Southwest 491 565 36,000  Level FlightAware Transoceanic
10:34PM -4.7043 176.8751 219° Southwest 491 565 36,000  Level FlightAware Transoceanic
10:35PM -4.8074 176.7903 219° Southwest 491 565 36,000  Level FlightAware Transoceanic
10:36PM -4.9106 176.7054 219° Southwest 491 565 36,000  Level FlightAware Transoceanic
10:37PM -5.0137 176.6206 219° Southwest 491 565 36,000  Level FlightAware Transoceanic
10:38PM -5.1167 176.5357 219° Southwest 491 565 36,000  Level FlightAware Transoceanic
10:39PM -5.2198 176.4508 219° Southwest 491 565 36,000  Level FlightAware Transoceanic
10:40PM -5.3229 176.3658 219° Southwest 491 565 36,000  Level FlightAware Transoceanic
10:41PM -5.4260 176.2809 219° Southwest 491 565 36,000  Level FlightAware Transoceanic
10:42PM -5.5290 176.1959 219° Southwest 491 565 36,000  Level FlightAware Transoceanic
10:43PM -5.6321 176.1108 219° Southwest 491 565 36,000  Level FlightAware Transoceanic
10:44PM -5.7351 176.0258 219° Southwest 491 565 36,000  Level FlightAware Transoceanic
10:45PM -5.8381 175.9407 219° Southwest 491 565 36,000  Level FlightAware Transoceanic
10:46PM -5.9411 175.8556 219° Southwest 491 565 36,000  Level FlightAware Transoceanic
10:47PM -6.0441 175.7704 219° Southwest 491 565 36,000  Level FlightAware Transoceanic
10:48PM -6.1470 175.6852 219° Southwest 491 565 36,000  Level FlightAware Transoceanic
10:49PM -6.2329 175.5839 230° Southwest  Level FlightAware Approximate
10:50PM -6.2337 175.5831 221° Southwest  Level FlightAware Approximate
10:51PM -6.3338 175.4960 221° Southwest  Level FlightAware Approximate
10:52PM -6.4340 175.4089 221° Southwest  Level FlightAware Approximate
10:53PM -6.5341 175.3218 221° Southwest  Level FlightAware Approximate
10:54PM -6.6343 175.2347 221° Southwest  Level FlightAware Approximate
10:55PM -6.7344 175.1475 221° Southwest  Level FlightAware Approximate
10:56PM -6.8345 175.0602 221° Southwest  Level FlightAware Approximate
10:57PM -6.9346 174.9730 221° Southwest  Level FlightAware Approximate
10:58PM -7.0346 174.8857 221° Southwest  Level FlightAware Approximate
10:59PM -7.1347 174.7983 221° Southwest  Level FlightAware Approximate
11:00PM -7.2347 174.7110 221° Southwest  Level FlightAware Approximate
11:01PM -7.3348 174.6236 221° Southwest  Level FlightAware Approximate
11:02PM -7.4348 174.5361 221° Southwest  Level FlightAware Approximate
11:03PM -7.5348 174.4486 221° Southwest  Level FlightAware Approximate
11:04PM -7.6347 174.3611 221° Southwest  Level FlightAware Approximate
11:05PM -7.7347 174.2735 221° Southwest  Level FlightAware Approximate
11:06PM -7.8346 174.1859 221° Southwest  Level FlightAware Approximate
11:07PM -7.9345 174.0982 221° Southwest  Level FlightAware Approximate
11:08PM -8.0344 174.0105 221° Southwest  Level FlightAware Approximate
11:09PM -8.1343 173.9228 221° Southwest  Level FlightAware Approximate
11:10PM -8.2342 173.8350 221° Southwest  Level FlightAware Approximate
11:11PM -8.3340 173.7472 221° Southwest  Level FlightAware Approximate
11:12PM -8.4338 173.6593 221° Southwest  Level FlightAware Approximate
11:13PM -8.5336 173.5714 221° Southwest  Level FlightAware Approximate
11:14PM -8.6334 173.4834 221° Southwest  Level FlightAware Approximate
11:15PM -8.7332 173.3954 221° Southwest  Level FlightAware Approximate
11:16PM -8.8329 173.3073 221° Southwest  Level FlightAware Approximate
11:17PM -8.9326 173.2192 221° Southwest  Level FlightAware Approximate
11:18PM -9.0323 173.1311 221° Southwest  Level FlightAware Approximate
11:19PM -9.1320 173.0429 221° Southwest  Level FlightAware Approximate
11:20PM -9.2317 172.9546 221° Southwest  Level FlightAware Approximate
11:21PM -9.3313 172.8663 221° Southwest  Level FlightAware Approximate
11:22PM -9.4309 172.7780 221° Southwest  Level FlightAware Approximate
11:23PM -9.5305 172.6895 221° Southwest  Level FlightAware Approximate
11:24PM -9.6301 172.6011 221° Southwest  Level FlightAware Approximate
11:25PM -9.7296 172.5126 221° Southwest  Level FlightAware Approximate
11:26PM -9.8292 172.4240 221° Southwest  Level FlightAware Approximate
11:27PM -9.9286 172.3352 221° Southwest  Level FlightAware Approximate
11:28PM -10.0280 172.2465 221° Southwest  Level FlightAware Approximate
11:29PM -10.1273 172.1576 221° Southwest  Level FlightAware Approximate
11:30PM -10.2267 172.0687 221° Southwest  Level FlightAware Approximate
11:31PM -10.3260 171.9798 221° Southwest  Level FlightAware Approximate
11:32PM -10.4253 171.8908 221° Southwest  Level FlightAware Approximate
11:33PM -10.5246 171.8017 221° Southwest  Level FlightAware Approximate
11:34PM -10.6238 171.7126 221° Southwest  Level FlightAware Approximate
11:35PM -10.7230 171.6235 221° Southwest  Level FlightAware Approximate
11:36PM -10.8222 171.5342 221° Southwest  Level FlightAware Approximate
11:37PM -10.9214 171.4449 221° Southwest  Level FlightAware Approximate
11:38PM -11.0205 171.3556 221° Southwest  Level FlightAware Approximate
11:39PM -11.1196 171.2662 222° Southwest  Level FlightAware Approximate
11:40PM -11.2187 171.1767 222° Southwest  Level FlightAware Approximate
11:41PM -11.3178 171.0872 222° Southwest  Level FlightAware Approximate
11:42PM -11.4168 170.9976 222° Southwest  Level FlightAware Approximate
11:43PM -11.5158 170.9079 222° Southwest  Level FlightAware Approximate
11:44PM -11.6148 170.8182 222° Southwest  Level FlightAware Approximate
11:45PM -11.7137 170.7284 222° Southwest  Level FlightAware Approximate
11:46PM -11.8126 170.6386 222° Southwest  Level FlightAware Approximate
11:47PM -11.9115 170.5487 222° Southwest  Level FlightAware Approximate
11:48PM -12.0104 170.4587 222° Southwest  Level FlightAware Approximate
11:49PM -12.1093 170.3687 222° Southwest  Level FlightAware Approximate
11:50PM -12.2081 170.2785 222° Southwest  Level FlightAware Approximate
11:51PM -12.3068 170.1884 222° Southwest  Level FlightAware Approximate
11:52PM -12.4056 170.0981 222° Southwest  Level FlightAware Approximate
11:53PM -12.5043 170.0078 222° Southwest  Level FlightAware Approximate
11:54PM -12.6030 169.9174 222° Southwest  Level FlightAware Approximate
11:55PM -12.7017 169.8270 222° Southwest  Level FlightAware Approximate
11:56PM -12.8003 169.7365 222° Southwest  Level FlightAware Approximate
11:57PM -12.8989 169.6458 222° Southwest  Level FlightAware Approximate
11:58PM -12.9974 169.5552 222° Southwest  Level FlightAware Approximate
12:01AM 21.0389 -158.2079 224° Southwest  Level FlightAware Approximate
12:02AM 20.9456 -158.3028 224° Southwest  Level FlightAware Approximate
12:03AM 20.8521 -158.3976 223° Southwest  Level FlightAware Approximate
12:04AM 20.7587 -158.4922 223° Southwest  Level FlightAware Approximate
12:05AM 20.6651 -158.5868 223° Southwest  Level FlightAware Approximate
12:06AM 20.5716 -158.6812 223° Southwest  Level FlightAware Approximate
12:07AM 20.4780 -158.7755 223° Southwest  Level FlightAware Approximate
12:08AM 20.3843 -158.8697 223° Southwest  Level FlightAware Approximate
12:09AM 20.2906 -158.9638 223° Southwest  Level FlightAware Approximate
12:10AM 20.1968 -159.0578 223° Southwest  Level FlightAware Approximate
12:11AM 20.1030 -159.1517 223° Southwest  Level FlightAware Approximate
12:12AM 20.0091 -159.2454 223° Southwest  Level FlightAware Approximate
12:13AM 19.9152 -159.3390 223° Southwest  Level FlightAware Approximate
12:14AM 19.8212 -159.4326 223° Southwest  Level FlightAware Approximate
12:15AM 19.7272 -159.5260 223° Southwest  Level FlightAware Approximate
12:16AM 19.6331 -159.6193 223° Southwest  Level FlightAware Approximate
12:17AM 19.5390 -159.7125 223° Southwest  Level FlightAware Approximate
12:18AM 19.4449 -159.8056 223° Southwest  Level FlightAware Approximate
12:19AM 19.3507 -159.8986 223° Southwest  Level FlightAware Approximate
12:20AM 19.2564 -159.9914 223° Southwest  Level FlightAware Approximate
12:21AM 19.1621 -160.0842 223° Southwest  Level FlightAware Approximate
12:22AM 19.0677 -160.1769 223° Southwest  Level FlightAware Approximate
12:23AM 18.9733 -160.2694 223° Southwest  Level FlightAware Approximate
12:24AM 18.8789 -160.3619 223° Southwest  Level FlightAware Approximate
12:25AM 18.7844 -160.4542 223° Southwest  Level FlightAware Approximate
12:26AM 18.6899 -160.5465 223° Southwest  Level FlightAware Approximate
12:27AM 18.5953 -160.6386 223° Southwest  Level FlightAware Approximate
12:28AM 18.5007 -160.7306 223° Southwest  Level FlightAware Approximate
12:29AM 18.4060 -160.8226 223° Southwest  Level FlightAware Approximate
12:30AM 18.3113 -160.9144 223° Southwest  Level FlightAware Approximate
12:31AM 18.2165 -161.0061 223° Southwest  Level FlightAware Approximate
12:32AM 18.1217 -161.0978 223° Southwest  Level FlightAware Approximate
12:33AM 18.0269 -161.1893 223° Southwest  Level FlightAware Approximate
12:34AM 17.9320 -161.2807 223° Southwest  Level FlightAware Approximate
12:35AM 17.8371 -161.3721 222° Southwest  Level FlightAware Approximate
12:36AM 17.7421 -161.4633 222° Southwest  Level FlightAware Approximate
12:37AM 17.6471 -161.5545 222° Southwest  Level FlightAware Approximate
12:38AM 17.5520 -161.6455 222° Southwest  Level FlightAware Approximate
12:39AM 17.4569 -161.7365 222° Southwest  Level FlightAware Approximate
12:40AM 17.3618 -161.8273 222° Southwest  Level FlightAware Approximate
12:41AM 17.2666 -161.9181 222° Southwest  Level FlightAware Approximate
12:42AM 17.1714 -162.0087 222° Southwest  Level FlightAware Approximate
12:43AM 17.0762 -162.0993 222° Southwest  Level FlightAware Approximate
12:44AM 16.9826 -162.1881 222° Southwest  Level FlightAware Approximate
12:45AM 16.8891 -162.2768 222° Southwest  Level FlightAware Approximate
12:46AM 16.7955 -162.3654 222° Southwest  Level FlightAware Approximate
12:47AM 16.7019 -162.4540 222° Southwest  Level FlightAware Approximate
12:48AM 16.6082 -162.5424 222° Southwest  Level FlightAware Approximate
12:49AM 16.5145 -162.6308 222° Southwest  Level FlightAware Approximate
12:50AM 16.4208 -162.7190 222° Southwest  Level FlightAware Approximate
12:51AM 16.3270 -162.8072 222° Southwest  Level FlightAware Approximate
12:52AM 16.2332 -162.8953 222° Southwest  Level FlightAware Approximate
12:53AM 16.1393 -162.9833 222° Southwest  Level FlightAware Approximate
12:54AM 16.0454 -163.0712 222° Southwest  Level FlightAware Approximate
12:55AM 15.9515 -163.1591 222° Southwest  Level FlightAware Approximate
12:56AM 15.8575 -163.2469 222° Southwest  Level FlightAware Approximate
12:57AM 15.7636 -163.3345 222° Southwest  Level FlightAware Approximate
12:58AM 15.6695 -163.4221 222° Southwest  Level FlightAware Approximate
12:59AM 15.5755 -163.5096 222° Southwest  Level FlightAware Approximate
01:00AM 15.4814 -163.5971 222° Southwest  Level FlightAware Approximate
01:01AM 15.3872 -163.6844 222° Southwest  Level FlightAware Approximate
01:02AM 15.2931 -163.7717 222° Southwest  Level FlightAware Approximate
01:03AM 15.1989 -163.8589 222° Southwest  Level FlightAware Approximate
01:04AM 15.1046 -163.9461 222° Southwest  Level FlightAware Approximate
01:05AM 15.0104 -164.0331 222° Southwest  Level FlightAware Approximate
01:06AM 14.9161 -164.1201 222° Southwest  Level FlightAware Approximate
01:07AM 14.8217 -164.2070 222° Southwest  Level FlightAware Approximate
01:08AM 14.7274 -164.2938 222° Southwest  Level FlightAware Approximate
01:09AM 14.6330 -164.3805 222° Southwest  Level FlightAware Approximate
01:10AM 14.5386 -164.4672 222° Southwest  Level FlightAware Approximate
01:11AM 14.4441 -164.5538 222° Southwest  Level FlightAware Approximate
01:12AM 14.3496 -164.6403 222° Southwest  Level FlightAware Approximate
01:13AM 14.2551 -164.7268 222° Southwest  Level FlightAware Approximate
01:14AM 14.1605 -164.8132 222° Southwest  Level FlightAware Approximate
01:15AM 14.0660 -164.8995 222° Southwest  Level FlightAware Approximate
01:16AM 13.9713 -164.9857 221° Southwest  Level FlightAware Approximate
01:17AM 13.8767 -165.0719 221° Southwest  Level FlightAware Approximate
01:17AM -21.0454 164.1358 220° Southwest 38,000  Level Aus ATC (Calculated)
01:18AM 13.7820 -165.1579 221° Southwest  Level FlightAware Approximate
01:19AM -21.1430 164.0363 224° Southwest  Level FlightAware Approximate
01:20AM -21.2345 163.9430 224° Southwest  Level FlightAware Approximate
01:20AM -21.3261 163.8494 220° Southwest 38,000  Level Aus ATC (Calculated)
01:21AM -21.3260 163.8495 224° Southwest  Level FlightAware Approximate
01:21AM -21.3778 163.7965 220° Southwest 38,000  Level Aus ATC (Calculated)
01:22AM -21.4795 163.6922 220° Southwest 38,000  Level Aus ATC (Calculated)
01:23AM -21.5059 163.6651 224° Southwest  Level FlightAware Approximate
01:23AM -21.5780 163.5910 220° Southwest 38,000  Level Aus ATC (Calculated)
01:23AM -21.5780 163.5910 220° Southwest 38,000  Level Aus ATC (Calculated)
01:24AM -21.6075 163.5606 224° Southwest  Level FlightAware Approximate
01:25AM -21.7029 163.4624 224° Southwest  Level FlightAware Approximate
01:26AM -21.7942 163.3682 224° Southwest  Level FlightAware Approximate
01:27AM -21.8855 163.2738 224° Southwest  Level FlightAware Approximate
01:28AM -21.9767 163.1793 224° Southwest  Level FlightAware Approximate
01:29AM -22.0679 163.0847 224° Southwest  Level FlightAware Approximate
01:30AM -22.1590 162.9899 224° Southwest  Level FlightAware Approximate
01:31AM -22.2501 162.8950 224° Southwest  Level FlightAware Approximate
01:32AM -22.3411 162.8000 224° Southwest  Level FlightAware Approximate
01:33AM -22.4321 162.7049 224° Southwest  Level FlightAware Approximate
01:34AM -22.5230 162.6097 224° Southwest  Level FlightAware Approximate
01:35AM -22.6138 162.5143 224° Southwest  Level FlightAware Approximate
01:36AM -22.7046 162.4189 224° Southwest  Level FlightAware Approximate
01:36AM -22.7654 162.3549 220° Southwest 38,000  Level Aus ATC (Calculated)
01:38AM -22.9286 162.1826 224° Southwest  Level FlightAware Approximate
01:39AM -23.0192 162.0866 224° Southwest  Level FlightAware Approximate
01:40AM -23.1097 161.9906 224° Southwest  Level FlightAware Approximate
01:41AM -23.2002 161.8944 224° Southwest  Level FlightAware Approximate
01:42AM -23.2906 161.7980 224° Southwest  Level FlightAware Approximate
01:43AM -23.3809 161.7016 224° Southwest  Level FlightAware Approximate
01:44AM -23.4712 161.6050 224° Southwest  Level FlightAware Approximate
01:45AM -23.5615 161.5083 224° Southwest  Level FlightAware Approximate
01:46AM -23.6516 161.4115 225° Southwest  Level FlightAware Approximate
01:47AM -23.7418 161.3145 225° Southwest  Level FlightAware Approximate
01:48AM -23.8318 161.2174 225° Southwest  Level FlightAware Approximate
01:48AM -23.9135 161.1292 219° Southwest 38,000  Level Aus ATC (Calculated)
01:50AM -24.0604 160.9700 225° Southwest  Level FlightAware Approximate
01:51AM -24.1502 160.8724 225° Southwest  Level FlightAware Approximate
01:52AM -24.2400 160.7747 225° Southwest  Level FlightAware Approximate
01:53AM -24.3297 160.6768 225° Southwest  Level FlightAware Approximate
01:53AM -24.3415 160.6640 218° Southwest 38,000  Level Aus ATC (Calculated)
01:54AM -24.4696 160.5238 218° Southwest 38,000  Level Aus ATC (Calculated)
01:55AM -24.4759 160.5169 225° Southwest  Level FlightAware Approximate
01:55AM -24.5976 160.3834 217° Southwest 38,000  Level Aus ATC (Calculated)
01:56AM -24.6024 160.3780 225° Southwest  Level FlightAware Approximate
01:56AM -24.6693 160.3232 217° Southwest 38,000  Level Aus ATC (Calculated)
01:58AM -24.4730 160.4876 37° Northeast  Level FlightAware Approximate
01:59AM -24.5737 160.4033 217° Southwest  Level FlightAware Approximate
02:00AM -24.6743 160.3190 217° Southwest  Level FlightAware Approximate
02:01AM -24.5737 160.4033 37° Northeast  Level FlightAware Approximate
02:02AM -24.6743 160.3190 217° Southwest  Level FlightAware Approximate
02:03AM -24.5737 160.4033 37° Northeast  Level FlightAware Approximate
02:04AM -24.6743 160.3190 217° Southwest  Level FlightAware Approximate
02:05AM -24.5737 160.4033 37° Northeast  Level FlightAware Approximate
02:06AM -24.6743 160.3190 217° Southwest  Level FlightAware Approximate
02:07AM -24.5737 160.4033 37° Northeast  Level FlightAware Approximate
02:08AM -24.6743 160.3190 217° Southwest  Level FlightAware Approximate
02:09AM -24.5737 160.4033 37° Northeast  Level FlightAware Approximate
02:10AM -24.6743 160.3190 217° Southwest  Level FlightAware Approximate
02:11AM -24.5737 160.4033 37° Northeast  Level FlightAware Approximate
02:12AM -24.6743 160.3190 217° Southwest  Level FlightAware Approximate
02:13AM -24.5737 160.4033 37° Northeast  Level FlightAware Approximate
02:14AM -24.6743 160.3190 217° Southwest  Level FlightAware Approximate
02:15AM -24.5737 160.4033 37° Northeast  Level FlightAware Approximate
02:16AM -24.6743 160.3190 217° Southwest  Level FlightAware Approximate
02:17AM -24.5737 160.4033 37° Northeast  Level FlightAware Approximate
02:18AM -24.6743 160.3190 217° Southwest  Level FlightAware Approximate
02:18AM -26.7417 158.5418 218° Southwest 38,000  Level Aus ATC (Calculated)
02:19AM -26.8104 158.4813 218° Southwest 38,000 120 Level Aus ATC (Calculated)
02:20AM -26.9539 158.3546 218° Southwest 38,000 180 Level Aus ATC (Calculated)
02:21AM -26.9539 158.3546 218° Southwest 38,000 240 Level Aus ATC (Calculated)
02:23AM -26.7571 158.5282 38° Northeast  Level FlightAware Approximate
02:23AM -27.1785 158.1555 217° Southwest 38,000  Level Aus ATC (Calculated)
02:23AM -27.2533 158.0890 65° Northeast 38,000 720 Level Aus ATC (Calculated)
02:24AM -27.2517 158.0930 38° Northeast 416 479 39,000 840 Climbing Aus ATC (RADAR)
02:24AM -27.3010 158.0459 220° Southwest 401 461 39,000  Level Aus ATC (RADAR)
02:25AM -27.3529 157.9996 218° Southwest 404 465 39,000  Level Aus ATC (RADAR)
02:26AM -27.4062 157.9532 218° Southwest 409 471 39,000  Level Aus ATC (RADAR)
02:26AM -27.4574 157.9067 219° Southwest 407 468 39,000  Level Aus ATC (RADAR)
02:27AM -27.5170 157.8533 218° Southwest 408 470 39,000  Level Aus ATC (RADAR)
02:28AM -27.5843 157.7931 218° Southwest 410 472 39,000  Level Aus ATC (RADAR)
02:29AM -27.6800 157.7062 219° Southwest 408 470 39,000  Level Aus ATC (RADAR)
02:29AM -27.7471 157.6461 218° Southwest 408 470 39,000  Level Aus ATC (RADAR)
02:30AM -27.7913 157.6058 219° Southwest 409 471 39,000  Level Aus ATC (RADAR)
02:31AM -27.8441 157.5589 218° Southwest 410 472 39,000  Level Aus ATC (RADAR)
02:31AM -27.9104 157.4985 219° Southwest 409 471 39,000  Level Aus ATC (RADAR)
02:32AM -27.9700 157.4447 219° Southwest 409 471 39,000  Level Aus ATC (RADAR)
02:33AM -28.0305 157.3909 218° Southwest 411 473 39,000  Level Aus ATC (RADAR)
02:33AM -28.0815 157.3439 219° Southwest 409 471 39,000  Level Aus ATC (RADAR)
02:34AM -28.1333 157.2967 219° Southwest 409 471 39,000  Level Aus ATC (RADAR)
02:34AM -28.1846 157.2496 219° Southwest 408 470 39,000  Level Aus ATC (RADAR)
02:35AM -28.2364 157.2027 219° Southwest 407 468 39,000  Level Aus ATC (RADAR)
02:36AM -28.2887 157.1554 218° Southwest 410 472 39,000  Level Aus ATC (RADAR)
02:36AM -28.3473 157.1018 219° Southwest 408 470 39,000  Level Aus ATC (RADAR)
02:37AM -28.4119 157.0412 220° Southwest 403 464 39,000  Level Aus ATC (RADAR)
02:38AM -28.4782 156.9804 219° Southwest 406 467 39,000  Level Aus ATC (RADAR)
02:38AM -28.5302 156.9332 219° Southwest 408 470 39,000  Level Aus ATC (RADAR)
02:39AM -28.5903 156.8792 218° Southwest 410 472 39,000  Level Aus ATC (RADAR)
02:40AM -28.6786 156.7980 219° Southwest 408 470 39,000  Level Aus ATC (RADAR)
02:41AM -28.7524 156.7300 219° Southwest 409 471 39,100 60 Climbing Aus ATC (RADAR)
02:41AM -28.8041 156.6823 219° Southwest 409 471 39,100 -120 Level Aus ATC (RADAR)
02:42AM -28.8848 156.6076 219° Southwest 408 470 39,000  Descending Aus ATC (RADAR)
02:43AM -28.9731 156.5257 219° Southwest 405 466 39,200 120 Climbing Aus ATC (RADAR)
02:44AM -29.0334 156.4705 219° Southwest 413 475 39,200 -120 Level Aus ATC (RADAR)
02:45AM -29.0920 156.4157 219° Southwest 410 472 39,100 -240 Descending Aus ATC (RADAR)
02:45AM -29.1180 156.3910 219° Southwest 410 472 39,000  Descending FlightAware
02:46AM -29.1797 156.3344 219° Southwest 409 471 39,100  Climbing Aus ATC (RADAR)
02:46AM -29.1930 156.3200 220° Southwest 403 464 39,000  Descending FlightAware
02:47AM -29.3107 156.2106 220° Southwest 408 470 39,100  Climbing Aus ATC (RADAR)
02:48AM -29.3898 156.1361 219° Southwest 403 464 39,100  Level Aus ATC (RADAR)
02:49AM -29.4415 156.0882 219° Southwest 407 468 39,100  Level Aus ATC (RADAR)
02:49AM -29.4847 156.0472 219° Southwest 405 466 39,100 -120 Level Aus ATC (RADAR)
02:50AM -29.5210 156.0130 219° Southwest 404 465 39,000 -120 Descending FlightAware
02:50AM -29.5650 155.9720 219° Southwest 404 465 39,000 60 Level FlightAware
02:51AM -29.6446 155.8969 219° Southwest 406 467 39,100  Climbing Aus ATC (RADAR)
02:51AM -29.6250 155.9170 219° Southwest 404 465 39,000  Descending FlightAware
02:51AM -29.6959 155.8484 219° Southwest 409 471 39,100  Climbing Aus ATC (RADAR)
02:52AM -29.6690 155.8750 219° Southwest 404 465 39,000 -180 Descending FlightAware
02:52AM -29.7590 155.7880 219° Southwest 416 479 39,000 120 Level FlightAware
02:52AM -29.7700 155.7779 219° Southwest 414 476 39,100 360 Climbing Aus ATC (RADAR)
02:53AM -29.8068 155.7433 219° Southwest 413 475 39,200  Climbing Aus ATC (RADAR)
02:53AM -29.8150 155.7350 219° Southwest 419 482 39,100 -240 Descending FlightAware
02:54AM -29.8760 155.6780 219° Southwest 421 484 39,000 -120 Descending FlightAware
02:54AM -29.9220 155.6340 220° Southwest 421 484 39,000 60 Level FlightAware
02:55AM -30.0314 155.5291 220° Southwest 421 484 39,100  Climbing Aus ATC (RADAR)
02:55AM -30.0460 155.5150 220° Southwest 416 479 39,000 -120 Descending FlightAware
02:56AM -30.1110 155.4550 219° Southwest 416 479 39,000  Level FlightAware
02:57AM -30.1580 155.4100 220° Southwest 416 479 39,000  Level FlightAware
02:58AM -30.2190 155.3530 219° Southwest 416 479 39,000  Level FlightAware
02:58AM -30.2640 155.3100 219° Southwest 416 479 39,000 120 Level FlightAware
02:58AM -30.3096 155.2627 219° Southwest 407 468 39,100  Climbing Aus ATC (RADAR)
02:59AM -30.3250 155.2530 219° Southwest 416 479 39,000 -120 Descending FlightAware
03:00AM -30.3710 155.2100 219° Southwest 416 479 39,000  Level FlightAware
03:00AM -30.4180 155.1660 220° Southwest 416 479 39,000 120 Level FlightAware
03:01AM -30.5328 155.0470 219° Southwest 422 486 39,200 180 Climbing Aus ATC (RADAR)
03:01AM -30.5857 154.9954 220° Southwest 425 489 39,200 -120 Level Aus ATC (RADAR)
03:02AM -30.6607 154.9228 220° Southwest 422 486 39,100 -180 Descending Aus ATC (RADAR)
03:03AM -30.6080 154.9880 220° Southwest 416 479 39,000  Descending FlightAware
03:03AM -30.7126 154.8721 220° Southwest 419 482 39,100 120 Climbing Aus ATC (RADAR)
03:03AM -30.7644 154.8220 220° Southwest 417 480 39,100 -180 Level Aus ATC (RADAR)
03:04AM -30.6660 154.9330 220° Southwest 416 479 39,000  Descending FlightAware
03:04AM -30.8230 154.7642 220° Southwest 414 476 39,100  Climbing Aus ATC (RADAR)
03:04AM -30.7120 154.8900 220° Southwest 416 479 39,000 -120 Descending FlightAware
03:05AM -30.7730 154.8320 219° Southwest 416 479 39,000  Level FlightAware
03:06AM -30.9856 154.6044 219° Southwest 419 482 39,100 120 Climbing Aus ATC (RADAR)
03:07AM -31.0380 154.5531 220° Southwest 421 484 39,200 60 Climbing Aus ATC (RADAR)
03:07AM -31.0906 154.5016 220° Southwest 423 487 39,200  Level Aus ATC (RADAR)
03:08AM -31.1741 154.4198 220° Southwest 430 495 39,200 -60 Level Aus ATC (RADAR)
03:09AM -31.2480 154.3471 220° Southwest 419 482 39,100 -120 Descending Aus ATC (RADAR)
03:10AM -31.3147 154.2816 220° Southwest 417 480 39,100  Level Aus ATC (RADAR)
03:10AM -31.3658 154.2301 221° Southwest 416 479 39,100 -120 Level Aus ATC (RADAR)
03:11AM -31.4130 154.1830 221° Southwest 419 482 39,000  Descending FlightAware
03:11AM -31.4767 154.1197 221° Southwest 422 486 39,100  Climbing Aus ATC (RADAR)
03:12AM -31.4800 154.1170 221° Southwest 421 484 39,000  Descending FlightAware
03:12AM -31.5250 154.0710 221° Southwest 421 484 39,100  Climbing FlightAware
03:13AM -31.5960 154.0030 219° Southwest 427 491 39,000 -120 Descending FlightAware
03:13AM -31.6650 153.9600 208° Southwest 450 518 39,000  Level FlightAware
03:14AM -31.7500 153.9120 206° Southwest 448 516 39,000  Level FlightAware
03:15AM -31.8240 153.8700 206° Southwest 446 513 39,000  Level FlightAware
03:16AM -31.9080 153.8230 205° Southwest 445 512 39,000 60 Level FlightAware
03:17AM -32.0120 153.7640 205° Southwest 442 509 39,100  Climbing Aus ATC (RADAR)
03:17AM -32.0280 153.7560 205° Southwest 442 509 39,000 -120 Descending FlightAware
03:17AM -32.0990 153.7150 206° Southwest 442 509 39,000 60 Level FlightAware
03:18AM -32.2055 153.6552 206° Southwest 440 506 39,100  Climbing Aus ATC (RADAR)
03:18AM -32.2000 153.6580 206° Southwest 443 510 39,000 -180 Descending FlightAware
03:19AM -32.2640 153.6220 205° Southwest 445 512 39,000  Level FlightAware
03:19AM -32.3260 153.5870 206° Southwest 447 514 39,000  Level FlightAware
03:20AM -32.4160 153.5350 206° Southwest 451 519 39,000 60 Level FlightAware
03:21AM -32.4640 153.5080 205° Southwest 453 521 39,100 180 Climbing FlightAware
03:21AM -32.5422 153.4630 205° Southwest 454 522 39,200  Climbing Aus ATC (RADAR)
03:21AM -32.5600 153.4520 205° Southwest 455 524 39,100 -120 Descending FlightAware
03:22AM -32.6350 153.4100 205° Southwest 454 522 39,100 -120 Level FlightAware
03:23AM -32.7160 153.3630 206° Southwest 454 522 39,000  Descending FlightAware
03:23AM -32.7856 153.3241 206° Southwest 446 513 39,100  Climbing Aus ATC (RADAR)
03:24AM -32.7950 153.3180 206° Southwest 450 518 39,000 -180 Descending FlightAware
03:24AM -32.8507 153.2871 206° Southwest 441 507 39,000  Level Aus ATC (RADAR)
03:24AM -32.8600 153.2810 206° Southwest 425 489 39,000  Level FlightAware
03:25AM -32.9201 153.2470 206° Southwest 417 480 39,000  Level Aus ATC (RADAR)
03:25AM -32.9300 153.2410 206° Southwest 409 471 39,000  Level FlightAware
03:25AM -32.9870 153.2080 206° Southwest 400 460 39,000  Level FlightAware
03:26AM -33.0730 153.1570 206° Southwest 403 464 39,000  Level FlightAware
03:27AM -33.1400 153.1190 205° Southwest 401 461 39,000  Level FlightAware
03:28AM -33.2100 153.0780 206° Southwest 402 463 39,000  Level FlightAware
03:28AM -33.2792 153.0384 206° Southwest 397 457 39,000  Level Aus ATC (RADAR)
03:28AM -33.2780 153.0390 206° Southwest 401 461 39,000  Level FlightAware
03:29AM -33.3370 153.0039 206° Southwest 397 457 39,000  Level Aus ATC (RADAR)
03:29AM -33.3460 152.9990 206° Southwest 403 464 39,000 -420 Level FlightAware
03:30AM -33.4160 152.9580 206° Southwest 404 465 38,700 -780 Descending FlightAware
03:30AM -33.4903 152.9145 206° Southwest 405 466 38,000 -1,080 Descending Aus ATC (RADAR)
03:30AM -33.4960 152.9110 206° Southwest 409 471 37,900 -1,020 Descending FlightAware
03:31AM -33.5580 152.8750 206° Southwest 407 468 37,300 -1,020 Descending FlightAware
03:32AM -33.6241 152.8359 206° Southwest 404 465 36,700 -1,020 Descending Aus ATC (RADAR)
03:32AM -33.6370 152.8290 206° Southwest 395 455 36,500 -1,020 Descending FlightAware
03:32AM -33.6990 152.7920 206° Southwest 390 449 35,900 -1,020 Descending FlightAware
03:33AM -33.7580 152.7570 206° Southwest 370 426 35,300 -1,020 Descending FlightAware
03:34AM -33.8060 152.7305 206° Southwest 363 418 34,800 -1,020 Descending Aus ATC (RADAR)
03:34AM -33.8310 152.7170 206° Southwest 366 421 34,500 -1,020 Descending FlightAware
03:35AM -33.8870 152.6860 205° Southwest 371 427 33,900 -960 Descending FlightAware
03:35AM -33.9500 152.6530 203° Southwest 374 430 33,300 -1,560 Descending FlightAware
03:36AM -34.0060 152.6250 203° Southwest 377 434 32,000 -2,640 Descending FlightAware
03:37AM -34.0810 152.5840 204° Southwest 381 438 29,700 -2,640 Descending FlightAware
03:37AM -34.1430 152.5460 207° Southwest 333 383 28,200 -1,860 Descending FlightAware
03:38AM -34.1900 152.5010 218° Southwest 316 364 27,200 -1,920 Descending FlightAware
03:39AM -34.2350 152.4520 222° Southwest 300 345 25,600 -2,280 Descending FlightAware
03:39AM -34.2600 152.3922 222° Southwest 287 330 24,100 -2,040 Descending Aus ATC (RADAR)
03:39AM -34.2590 152.3960 222° Southwest 270 311 24,200 -1,560 Climbing FlightAware
03:40AM -34.2450 152.3420 287° West 255 293 23,000 -1,680 Descending FlightAware
03:41AM -34.2170 152.3050 287° West 254 292 22,100 -1,680 Descending FlightAware
03:41AM -34.2114 152.2987 287° West 250 288 22,000 -1,680 Descending Aus ATC (RADAR)
03:41AM -34.1834 152.2612 287° West 254 292 21,100 -1,560 Descending Aus ATC (RADAR)
03:41AM -34.1750 152.2500 287° West 265 305 20,800 -1,500 Descending FlightAware
03:42AM -34.1430 152.2080 313° West 261 300 19,800 -1,440 Descending FlightAware
03:43AM -34.1130 152.1690 313° West 263 303 19,000 -1,020 Descending FlightAware
03:43AM -34.0770 152.1220 313° West 258 297 18,500 -720 Descending FlightAware
03:44AM -34.0440 152.0790 313° West 256 295 18,000 -840 Descending FlightAware
03:44AM -34.0370 152.0650 301° West 250 288 17,800 -1,200 Descending FlightAware
03:45AM -34.0320 152.0390 283° West 249 287 17,400 -1,500 Descending FlightAware
03:45AM -34.0276 151.9936 283° West 248 285 16,600 -1,560 Descending Aus ATC (RADAR)
03:45AM -34.0270 151.9840 283° West 250 288 16,400 -1,560 Descending FlightAware
03:46AM -34.0200 151.9230 278° West 250 288 15,200 -1,680 Descending FlightAware
03:47AM -34.0140 151.8620 277° West 252 290 14,000 -1,740 Descending FlightAware
03:47AM -34.0073 151.7992 277° West 249 287 12,800 -1,680 Descending Aus ATC (RADAR)
03:47AM -34.0080 151.8010 277° West 247 284 12,800 -1,380 Level FlightAware
03:48AM -34.0030 151.7530 277° West 245 282 12,000 -1,500 Descending FlightAware
03:49AM -33.9972 151.6981 277° West 245 282 11,000 -1,440 Descending Aus ATC (RADAR)
03:49AM -33.9970 151.6930 277° West 250 288 10,900 -1,440 Descending FlightAware
03:49AM -33.9910 151.6330 277° West 246 283 9,900 -1,440 Descending FlightAware
03:50AM -33.9870 151.5960 277° West 259 298 9,300 -960 Descending FlightAware
03:50AM -33.9820 151.5510 278° West 264 304 9,000 -480 Descending FlightAware
03:51AM -33.9800 151.5350 279° West 263 303 9,000  Level FlightAware
03:51AM -33.9750 151.4870 277° West 264 304 9,000  Level FlightAware
03:52AM -33.9710 151.4440 276° West 262 302 9,000  Level FlightAware
03:52AM -33.9680 151.4180 278° West 257 296 9,000  Level FlightAware
03:52AM -33.9640 151.3730 276° West 263 303 9,000 -540 Level FlightAware
03:53AM -33.9730 151.3100 260° West 262 302 8,400 -840 Descending FlightAware
03:54AM -33.9840 151.2660 253° West 258 297 8,000 -600 Descending FlightAware
03:54AM -33.9880 151.2510 252° West 258 297 8,000  Level FlightAware
03:54AM -33.9980 151.2100 254° West 254 292 8,000  Level FlightAware
03:55AM -34.0070 151.1760 252° West 254 292 8,000 -780 Level FlightAware
03:55AM -34.0180 151.1370 251° West 254 292 7,300 -1,380 Descending FlightAware
03:56AM -34.0330 151.1230 218° Southwest 250 288 7,000 -1,380 Descending FlightAware
03:56AM -34.0660 151.1080 201° Southwest 256 295 6,300 -1,200 Descending FlightAware
03:56AM -34.0940 151.0970 198° South 240 276 5,900 -960 Descending FlightAware
03:57AM -34.1200 151.0870 198° South 237 273 5,500 -1,500 Descending FlightAware
03:57AM -34.1540 151.0760 195° South 243 280 4,500 -1,680 Descending FlightAware
03:58AM -34.1800 151.0870 161° South 257 296 4,000 -600 Descending FlightAware
03:58AM -34.2060 151.1190 134° Southeast 259 298 4,000  Level FlightAware
03:59AM -34.2190 151.1360 133° Southeast 259 298 4,000  Level FlightAware
03:59AM -34.2290 151.1610 116° Southeast 258 297 4,000  Level FlightAware
03:59AM -34.2180 151.1980 70° East 245 282 4,000 -300 Level FlightAware
04:00AM -34.2030 151.2070 26° Northeast 238 274 3,800 -780 Descending FlightAware
04:00AM -34.1800 151.2140 14° North 219 252 3,500 -840 Descending FlightAware
04:00AM -34.1660 151.2180 13° North 221 254 3,300 -780 Descending FlightAware
04:01AM -34.1360 151.2240 North 207 238 3,000 -420 Descending FlightAware
04:01AM -34.1240 151.2220 352° North 197 227 3,000 -540 Level FlightAware
04:01AM -34.0940 151.2140 348° North 201 231 2,600 -840 Descending FlightAware
04:02AM -34.0800 151.2110 350° North 184 212 2,400 -1,080 Descending FlightAware
04:02AM -34.0600 151.2060 348° North 167 192 1,900 -1,080 Descending FlightAware
04:02AM -34.0500 151.2030 346° North 153 176 1,700 -840 Descending FlightAware
04:03AM -34.0300 151.1980 348° North 131 151 1,300 -780 Descending FlightAware
04:03AM -34.0240 151.1960 345° North 136 157 1,200 -600 Descending FlightAware
04:04AM -34.0060 151.1910 347° North 137 158 900 -780 Descending FlightAware
04:04AM -33.9900 151.1870 347° North 130 150 500 -780 Descending FlightAware
04:04AM -33.9852 151.1861 347° North 137 158 500 -660 Level Aus ATC (RADAR)
04:05AM -33.9660 151.1811 347° North 141 162 100 -780 Descending Aus ATC (RADAR)
04:05AM -33.9650 151.1810 347° North 134 154 -3,000 Descending FlightAware